KMMK 240753Z AUTO 00000KT 10SM CLR 01/00 A3042 RMK AO2 SLP300 T00110000